Time;durP1;ratioP1;P1;durP2;ratioP2;P2;SDS_P1;SDS_P2;PMS_P1;PMS_P2;Temp;Humidity;BMP_temperature;BMP_pressure;BME280_temperature;BME280_humidity;BME280_pressure;Samples;Min_cycle;Max_cycle;Signal;HPM_P1;HPM_P2
2023/10/27 00:00:31;;;;;;;30.48;19.25;;;9.60;99.90;;;;;;5029734;28;20773;-90
2023/10/27 00:02:57;;;;;;;27.30;18.55;;;9.40;99.90;;;;;;5015627;28;20082;-90
2023/10/27 00:05:30;;;;;;;31.05;19.25;;;9.40;99.90;;;;;;5022611;28;20080;-90
2023/10/27 00:07:56;;;;;;;27.67;18.60;;;9.40;99.90;;;;;;5014757;28;20049;-90
2023/10/27 00:10:24;;;;;;;28.52;18.13;;;9.30;99.90;;;;;;5016048;28;21819;-90
2023/10/27 00:12:52;;;;;;;30.63;19.00;;;9.30;99.90;;;;;;5015989;28;20045;-90
2023/10/27 00:15:18;;;;;;;29.15;18.48;;;9.30;99.90;;;;;;5017116;28;20041;-91
2023/10/27 00:17:44;;;;;;;30.27;19.08;;;9.30;99.90;;;;;;5013653;28;20120;-90
2023/10/27 00:20:15;;;;;;;28.92;17.73;;;9.30;99.90;;;;;;5015569;28;20101;-91
2023/10/27 00:22:43;;;;;;;27.08;18.00;;;9.30;99.90;;;;;;5016464;28;20545;-91
2023/10/27 00:25:08;;;;;;;28.70;18.67;;;9.20;99.90;;;;;;5016559;28;20132;-91
2023/10/27 00:27:34;;;;;;;28.40;17.92;;;9.20;99.90;;;;;;5017114;28;20069;-91
2023/10/27 00:30:02;;;;;;;26.70;18.65;;;9.30;99.90;;;;;;5016913;28;20072;-90
2023/10/27 00:32:28;;;;;;;29.42;18.75;;;9.20;99.90;;;;;;5017259;28;20195;-91
2023/10/27 00:34:54;;;;;;;31.15;19.45;;;9.10;99.90;;;;;;4998968;28;20116;-91
2023/10/27 00:37:20;;;;;;;28.67;18.73;;;8.70;99.90;;;;;;4998367;28;20503;-91
2023/10/27 00:39:45;;;;;;;30.77;19.20;;;9.10;99.90;;;;;;5006432;28;20045;-89
2023/10/27 00:42:11;;;;;;;31.02;18.63;;;9.10;99.90;;;;;;5013497;28;20447;-90
2023/10/27 00:44:37;;;;;;;30.38;18.38;;;9.10;99.90;;;;;;5011620;28;20208;-90
2023/10/27 00:47:02;;;;;;;29.30;19.17;;;9.10;99.90;;;;;;5014858;28;20177;-90
2023/10/27 00:49:28;;;;;;;26.48;17.83;;;9.10;99.90;;;;;;5033657;28;20105;-90
2023/10/27 00:51:54;;;;;;;30.02;19.38;;;9.10;99.90;;;;;;5016018;28;20041;-90
2023/10/27 00:54:21;;;;;;;30.42;19.67;;;9.10;99.90;;;;;;5015567;28;20060;-91
2023/10/27 00:56:47;;;;;;;30.52;19.65;;;9.10;99.90;;;;;;5030876;28;20065;-90
2023/10/27 00:59:14;;;;;;;31.38;20.05;;;9.10;99.90;;;;;;5017065;28;20045;-91
2023/10/27 01:01:42;;;;;;;30.35;19.48;;;9.10;99.90;;;;;;5019751;28;20048;-91
2023/10/27 01:04:07;;;;;;;31.15;19.48;;;9.10;99.90;;;;;;5018321;28;20042;-90
2023/10/27 01:06:34;;;;;;;30.98;20.42;;;9.20;99.90;;;;;;5032941;28;20372;-90
2023/10/27 01:08:59;;;;;;;31.90;20.45;;;9.20;99.90;;;;;;5017943;28;20125;-91
2023/10/27 01:11:26;;;;;;;34.05;20.10;;;9.20;99.90;;;;;;5017862;28;20459;-89
2023/10/27 01:13:53;;;;;;;34.03;20.90;;;9.20;99.90;;;;;;5018266;28;20550;-89
2023/10/27 01:16:22;;;;;;;33.50;19.90;;;9.20;99.90;;;;;;5015733;28;20037;-89
2023/10/27 01:18:53;;;;;;;30.80;18.30;;;9.30;99.90;;;;;;5007427;28;20045;-90
2023/10/27 01:21:18;;;;;;;30.95;18.42;;;9.20;99.90;;;;;;5016488;28;20111;-90
2023/10/27 01:23:44;;;;;;;33.80;19.10;;;9.20;99.90;;;;;;5017021;28;20042;-90
2023/10/27 01:26:12;;;;;;;30.52;17.13;;;9.20;99.90;;;;;;5035557;28;20045;-91
2023/10/27 01:28:38;;;;;;;27.75;18.10;;;9.60;99.90;;;;;;5025647;28;20042;-89
2023/10/27 01:31:07;;;;;;;32.70;18.67;;;9.30;99.90;;;;;;5014738;28;20089;-90
2023/10/27 01:33:34;;;;;;;27.67;17.35;;;9.30;99.90;;;;;;5025504;28;20057;-90
2023/10/27 01:35:59;;;;;;;30.83;18.75;;;9.30;99.90;;;;;;5018057;28;20050;-90
2023/10/27 01:38:26;;;;;;;31.48;18.40;;;9.30;99.90;;;;;;5036160;28;20446;-90
2023/10/27 01:40:52;;;;;;;29.30;17.50;;;9.20;99.90;;;;;;5001960;28;20046;-90
2023/10/27 01:43:17;;;;;;;31.23;18.90;;;9.30;99.90;;;;;;5007458;28;20498;-91
2023/10/27 01:45:44;;;;;;;28.85;18.05;;;9.30;99.90;;;;;;5018543;28;20038;-90
2023/10/27 01:48:12;;;;;;;33.17;18.35;;;9.30;99.90;;;;;;5027055;28;20052;-90
2023/10/27 01:50:42;;;;;;;31.90;18.92;;;9.30;99.90;;;;;;5017854;28;20045;-90
2023/10/27 01:53:10;;;;;;;29.38;17.88;;;9.30;99.90;;;;;;5017328;28;20063;-90
2023/10/27 01:55:36;;;;;;;29.40;17.60;;;9.30;99.90;;;;;;5018170;28;20060;-91
2023/10/27 01:58:05;;;;;;;31.25;18.25;;;9.30;99.90;;;;;;5019899;28;20471;-90
2023/10/27 02:00:39;;;;;;;29.70;18.00;;;9.30;99.90;;;;;;5020235;28;20054;-91
2023/10/27 02:03:05;;;;;;;26.38;17.90;;;9.40;99.90;;;;;;5019459;28;20052;-90
2023/10/27 02:05:31;;;;;;;33.00;18.45;;;9.40;99.90;;;;;;5028103;28;20932;-89
2023/10/27 02:08:00;;;;;;;30.80;18.65;;;10.00;99.90;;;;;;5018199;28;20127;-89
2023/10/27 02:10:25;;;;;;;33.35;21.25;;;9.40;99.90;;;;;;5028314;28;20045;-90
2023/10/27 02:12:51;;;;;;;30.80;19.15;;;9.40;99.90;;;;;;5027022;28;20051;-89
2023/10/27 02:15:18;;;;;;;32.67;19.48;;;9.90;99.90;;;;;;5024065;28;20077;-91
2023/10/27 02:17:46;;;;;;;30.52;19.48;;;9.30;99.90;;;;;;5033994;28;20050;-90
2023/10/27 02:20:13;;;;;;;28.50;18.08;;;9.40;99.90;;;;;;5032366;28;20037;-90
2023/10/27 02:22:39;;;;;;;26.92;18.00;;;9.40;99.90;;;;;;5014774;28;20052;-90
2023/10/27 02:25:05;;;;;;;26.98;18.02;;;9.30;99.90;;;;;;5018483;28;20132;-91
2023/10/27 02:27:32;;;;;;;29.42;17.55;;;9.30;99.90;;;;;;5021142;28;20084;-90
2023/10/27 02:30:05;;;;;;;25.65;16.92;;;9.80;99.90;;;;;;4999841;28;20046;-90
2023/10/27 02:32:34;;;;;;;26.55;16.40;;;9.30;99.90;;;;;;5001691;28;20107;-90
2023/10/27 02:35:00;;;;;;;29.45;16.33;;;9.70;99.90;;;;;;5016908;28;20057;-89
2023/10/27 02:37:26;;;;;;;26.08;16.27;;;9.50;99.90;;;;;;5017968;28;20052;-90
2023/10/27 02:39:52;;;;;;;25.30;15.98;;;9.30;99.90;;;;;;5016847;28;20049;-90
2023/10/27 02:42:19;;;;;;;27.20;15.43;;;9.40;99.90;;;;;;5016875;28;20059;-90
2023/10/27 02:44:45;;;;;;;24.35;15.48;;;9.70;99.90;;;;;;5017173;28;20060;-90
2023/10/27 02:47:10;;;;;;;25.73;15.90;;;9.40;99.90;;;;;;5015644;28;20045;-88
2023/10/27 02:49:38;;;;;;;26.42;16.40;;;9.60;99.90;;;;;;5018143;28;20053;-90
2023/10/27 02:52:06;;;;;;;26.20;15.43;;;9.40;99.90;;;;;;5018965;28;20049;-90
2023/10/27 02:54:32;;;;;;;25.98;14.80;;;9.40;99.90;;;;;;5018235;28;20050;-90
2023/10/27 02:56:58;;;;;;;23.55;15.00;;;9.30;99.90;;;;;;5016784;28;20052;-89
2023/10/27 02:59:23;;;;;;;25.17;15.77;;;9.50;99.90;;;;;;5022429;28;20073;-88
2023/10/27 03:01:54;;;;;;;25.30;15.95;;;9.50;99.90;;;;;;5018426;28;20049;-89
2023/10/27 03:04:22;;;;;;;26.73;16.25;;;9.40;99.90;;;;;;5017077;28;20056;-88
2023/10/27 03:06:47;;;;;;;26.15;15.07;;;9.40;99.90;;;;;;5013566;28;20084;-90
2023/10/27 03:09:13;;;;;;;23.35;14.23;;;9.70;99.90;;;;;;5026186;28;20073;-89
2023/10/27 03:11:39;;;;;;;25.65;15.35;;;9.50;99.90;;;;;;5033739;28;20620;-89
2023/10/27 03:14:05;;;;;;;23.48;14.45;;;9.50;99.90;;;;;;5032600;28;20041;-88
2023/10/27 03:16:32;;;;;;;26.75;15.52;;;9.80;99.90;;;;;;5013987;28;20048;-88
2023/10/27 03:18:58;;;;;;;24.90;14.68;;;9.50;99.90;;;;;;5032717;28;20564;-90
2023/10/27 03:21:24;;;;;;;23.15;14.40;;;9.70;99.90;;;;;;5017297;28;20057;-89
2023/10/27 03:23:49;;;;;;;23.83;14.48;;;9.40;99.90;;;;;;5014325;28;20071;-90
2023/10/27 03:26:15;;;;;;;22.23;14.50;;;9.50;99.90;;;;;;5014290;28;20373;-89
2023/10/27 03:28:42;;;;;;;22.85;14.45;;;9.50;99.90;;;;;;5017619;28;20041;-88
2023/10/27 03:31:12;;;;;;;24.20;14.70;;;9.50;99.90;;;;;;5016812;28;20045;-89
2023/10/27 03:33:38;;;;;;;23.10;14.82;;;10.10;99.90;;;;;;5017037;28;20041;-90
2023/10/27 03:36:05;;;;;;;22.08;13.43;;;9.50;99.90;;;;;;5016934;28;20045;-89
2023/10/27 03:38:31;;;;;;;23.05;14.05;;;9.50;99.90;;;;;;5009219;28;20034;-88
2023/10/27 03:40:58;;;;;;;24.75;13.95;;;9.50;99.90;;;;;;4997775;28;20057;-90
2023/10/27 03:43:24;;;;;;;22.90;14.07;;;9.70;99.90;;;;;;5015863;28;20220;-90
2023/10/27 03:45:49;;;;;;;23.60;13.77;;;9.40;99.90;;;;;;5012340;28;20212;-89
2023/10/27 03:48:15;;;;;;;21.80;13.50;;;9.40;99.90;;;;;;5015977;28;20048;-89
2023/10/27 03:50:41;;;;;;;18.98;12.32;;;9.40;99.90;;;;;;5015708;28;20610;-90
2023/10/27 03:53:11;;;;;;;22.20;14.05;;;9.40;99.90;;;;;;5015840;28;20049;-90
2023/10/27 03:55:37;;;;;;;19.52;12.80;;;9.40;99.90;;;;;;5017120;28;20395;-90
2023/10/27 03:58:13;;;;;;;21.45;13.10;;;9.40;99.90;;;;;;5016011;28;20049;-89
2023/10/27 04:00:39;;;;;;;21.33;12.95;;;9.40;99.90;;;;;;5033114;28;20080;-89
2023/10/27 04:03:05;;;;;;;19.20;12.60;;;9.40;99.90;;;;;;5015586;28;20053;-90
2023/10/27 04:05:30;;;;;;;19.15;12.43;;;9.40;99.90;;;;;;5015599;28;20767;-89
2023/10/27 04:07:56;;;;;;;20.95;12.13;;;9.40;99.90;;;;;;5015249;28;20045;-90
2023/10/27 04:10:24;;;;;;;20.33;12.40;;;9.40;99.90;;;;;;5015589;28;20033;-90
2023/10/27 04:12:51;;;;;;;19.83;12.23;;;9.40;99.90;;;;;;5017301;28;20049;-90
2023/10/27 04:15:17;;;;;;;21.70;13.50;;;9.40;99.90;;;;;;5031252;28;20049;-90
2023/10/27 04:17:45;;;;;;;18.73;11.80;;;9.40;99.90;;;;;;5032347;28;20049;-90
2023/10/27 04:20:13;;;;;;;19.02;12.40;;;9.60;99.90;;;;;;5014558;28;20466;-90
2023/10/27 04:22:38;;;;;;;19.00;12.75;;;9.30;99.90;;;;;;5029362;28;20049;-89
2023/10/27 04:25:05;;;;;;;19.33;12.27;;;9.30;99.90;;;;;;5032290;28;20052;-90
2023/10/27 04:27:31;;;;;;;17.60;11.65;;;9.40;99.90;;;;;;5016657;28;20052;-90
2023/10/27 04:29:57;;;;;;;22.98;13.02;;;9.40;99.90;;;;;;5015620;28;20045;-89
2023/10/27 04:32:24;;;;;;;20.70;13.05;;;9.30;99.90;;;;;;5015017;28;20049;-87
2023/10/27 04:34:51;;;;;;;19.92;12.30;;;9.30;99.90;;;;;;5000596;28;20044;-89
2023/10/27 04:37:17;;;;;;;19.35;11.63;;;9.30;99.90;;;;;;5031816;28;20099;-89
2023/10/27 04:39:43;;;;;;;18.60;12.13;;;9.30;99.90;;;;;;5016367;28;20379;-89
2023/10/27 04:42:11;;;;;;;20.00;13.10;;;9.30;99.90;;;;;;5011213;28;20057;-87
2023/10/27 04:44:38;;;;;;;19.55;12.30;;;9.30;99.90;;;;;;5029823;28;20042;-88
2023/10/27 04:47:04;;;;;;;20.23;12.75;;;9.30;99.90;;;;;;5035665;28;20490;-88
2023/10/27 04:49:31;;;;;;;20.10;12.70;;;9.60;99.90;;;;;;5026419;28;20037;-89
2023/10/27 04:51:59;;;;;;;21.83;13.65;;;9.50;99.90;;;;;;5019010;28;20067;-88
2023/10/27 04:54:25;;;;;;;21.00;13.02;;;9.30;99.90;;;;;;5035371;28;20052;-88
2023/10/27 04:56:51;;;;;;;19.23;12.68;;;9.30;99.90;;;;;;5016797;28;20056;-89
2023/10/27 04:59:18;;;;;;;18.85;12.27;;;9.30;99.90;;;;;;5017264;28;20045;-90
2023/10/27 05:01:43;;;;;;;21.70;13.10;;;9.30;99.90;;;;;;5030004;28;20041;-87
2023/10/27 05:04:09;;;;;;;20.27;13.02;;;9.80;99.90;;;;;;5033533;28;20096;-89
2023/10/27 05:06:39;;;;;;;22.45;13.32;;;9.20;99.90;;;;;;5032871;28;20132;-90
2023/10/27 05:09:05;;;;;;;22.40;12.57;;;9.30;99.90;;;;;;5035904;28;20053;-89
2023/10/27 05:11:31;;;;;;;19.20;12.00;;;9.20;99.90;;;;;;5034070;28;20281;-88
2023/10/27 05:13:57;;;;;;;24.25;12.45;;;9.20;99.90;;;;;;5033777;28;20045;-89
2023/10/27 05:16:26;;;;;;;19.98;12.32;;;9.20;99.90;;;;;;5034098;28;20045;-89
2023/10/27 05:18:52;;;;;;;21.33;13.25;;;9.20;99.90;;;;;;5005953;28;20042;-89
2023/10/27 05:21:17;;;;;;;20.95;12.98;;;9.20;99.90;;;;;;5012920;28;20104;-88
2023/10/27 05:23:43;;;;;;;22.05;12.45;;;9.20;99.90;;;;;;5004301;28;20088;-89
2023/10/27 05:26:09;;;;;;;22.60;13.55;;;9.20;99.90;;;;;;5022422;28;20067;-87
2023/10/27 05:28:36;;;;;;;21.95;12.85;;;9.20;99.90;;;;;;5032601;28;20095;-87
2023/10/27 05:31:02;;;;;;;22.67;13.88;;;9.50;99.90;;;;;;5030620;28;20088;-87
2023/10/27 05:33:27;;;;;;;23.13;13.52;;;9.20;99.90;;;;;;5031983;28;20081;-89
2023/10/27 05:35:53;;;;;;;19.63;12.10;;;9.20;99.90;;;;;;5030273;28;20080;-84
2023/10/27 05:38:21;;;;;;;22.20;13.38;;;9.20;99.90;;;;;;5017299;28;20053;-85
2023/10/27 05:40:48;;;;;;;23.33;14.20;;;9.50;99.90;;;;;;5027220;28;20042;-85
2023/10/27 05:43:17;;;;;;;21.70;13.35;;;9.30;99.90;;;;;;5028607;28;20052;-85
2023/10/27 05:45:42;;;;;;;20.42;12.52;;;9.20;99.90;;;;;;5031437;28;20125;-86
2023/10/27 05:48:08;;;;;;;22.83;13.70;;;9.30;99.90;;;;;;5030888;28;20190;-86
2023/10/27 05:50:33;;;;;;;24.85;14.25;;;9.30;99.90;;;;;;5014855;28;20052;-86
2023/10/27 05:52:59;;;;;;;22.35;13.60;;;9.20;99.90;;;;;;5030239;28;20041;-87
2023/10/27 05:55:25;;;;;;;21.55;13.93;;;9.20;99.90;;;;;;5048413;28;20052;-87
2023/10/27 05:57:51;;;;;;;20.65;13.63;;;9.20;99.90;;;;;;5016037;28;20060;-87
2023/10/27 06:00:17;;;;;;;22.33;13.68;;;9.10;99.90;;;;;;5030003;28;20091;-87
2023/10/27 06:02:45;;;;;;;21.75;13.85;;;9.20;99.90;;;;;;5032447;28;20124;-86
2023/10/27 06:05:11;;;;;;;20.08;12.80;;;9.10;99.90;;;;;;5014850;28;20059;-87
2023/10/27 06:07:37;;;;;;;23.63;15.45;;;9.20;99.90;;;;;;5049842;28;20538;-87
2023/10/27 06:10:05;;;;;;;21.13;14.43;;;9.10;99.90;;;;;;5032937;28;20414;-84
2023/10/27 06:12:30;;;;;;;23.42;14.70;;;9.10;99.90;;;;;;5031090;28;20041;-83
2023/10/27 06:14:56;;;;;;;21.90;13.85;;;9.10;99.90;;;;;;5032211;28;20084;-84
2023/10/27 06:17:22;;;;;;;22.77;14.73;;;9.40;99.90;;;;;;5010882;28;20041;-84
2023/10/27 06:19:47;;;;;;;24.13;14.63;;;9.20;99.90;;;;;;5015071;28;20053;-87
2023/10/27 06:22:14;;;;;;;20.38;13.57;;;9.20;99.90;;;;;;5011846;28;20080;-87
2023/10/27 06:24:40;;;;;;;21.67;13.68;;;9.10;99.90;;;;;;5028852;28;20064;-87
2023/10/27 06:27:05;;;;;;;23.00;14.52;;;9.20;99.90;;;;;;5017093;28;20049;-87
2023/10/27 06:29:31;;;;;;;21.55;13.82;;;9.20;99.90;;;;;;4994504;28;20464;-87
2023/10/27 06:31:57;;;;;;;23.67;14.90;;;9.20;99.90;;;;;;5011663;28;20491;-86
2023/10/27 06:34:22;;;;;;;20.10;13.23;;;9.20;99.90;;;;;;5028461;28;20083;-87
2023/10/27 06:36:48;;;;;;;21.85;14.00;;;9.20;99.90;;;;;;5029000;28;20052;-87
2023/10/27 06:39:18;;;;;;;21.00;14.10;;;9.20;99.90;;;;;;5028291;28;20049;-86
2023/10/27 06:41:46;;;;;;;22.52;14.45;;;9.20;99.90;;;;;;5012196;28;20045;-84
2023/10/27 06:44:11;;;;;;;23.90;14.95;;;9.20;99.90;;;;;;5028841;28;20045;-85
2023/10/27 06:46:37;;;;;;;22.95;14.93;;;9.20;99.90;;;;;;5025930;28;20047;-86
2023/10/27 06:49:03;;;;;;;24.95;16.00;;;9.20;99.90;;;;;;5012400;28;20046;-83
2023/10/27 06:51:28;;;;;;;23.73;14.70;;;9.20;99.90;;;;;;5007358;28;20053;-86
2023/10/27 06:53:54;;;;;;;22.25;14.68;;;9.20;99.90;;;;;;5007506;28;20037;-87
2023/10/27 06:56:20;;;;;;;22.25;14.40;;;9.20;99.90;;;;;;5026517;28;20041;-86
2023/10/27 06:58:45;;;;;;;21.27;13.50;;;9.20;99.90;;;;;;5026536;28;20050;-86
2023/10/27 07:01:11;;;;;;;23.40;14.38;;;9.20;99.90;;;;;;5026617;28;20481;-86
2023/10/27 07:03:37;;;;;;;25.42;15.55;;;9.10;99.90;;;;;;5028021;28;20430;-86
2023/10/27 07:06:04;;;;;;;25.40;14.52;;;9.10;99.90;;;;;;5028196;28;20053;-87
2023/10/27 07:08:30;;;;;;;22.65;15.05;;;9.10;99.90;;;;;;5028553;28;20041;-86
2023/10/27 07:10:59;;;;;;;21.45;13.85;;;9.20;99.90;;;;;;5027627;28;20048;-87
2023/10/27 07:13:28;;;;;;;24.85;15.07;;;9.10;99.90;;;;;;5011086;28;20046;-84
2023/10/27 07:15:54;;;;;;;24.75;15.73;;;9.20;99.90;;;;;;5026207;28;20046;-84
2023/10/27 07:18:20;;;;;;;25.20;14.55;;;9.20;99.90;;;;;;5028073;28;20041;-86
2023/10/27 07:20:49;;;;;;;23.42;14.57;;;9.20;99.90;;;;;;5028012;28;20050;-86
2023/10/27 07:23:18;;;;;;;23.17;14.15;;;9.20;99.90;;;;;;5044358;28;20057;-85
2023/10/27 07:25:43;;;;;;;22.95;14.88;;;9.20;99.90;;;;;;5011671;28;20071;-86
2023/10/27 07:28:09;;;;;;;23.92;14.80;;;9.30;99.90;;;;;;5028097;28;20507;-86
2023/10/27 07:30:35;;;;;;;22.95;14.60;;;9.30;99.90;;;;;;5027801;28;20061;-85
2023/10/27 07:33:00;;;;;;;24.08;13.95;;;9.20;99.90;;;;;;5027726;28;20524;-85
2023/10/27 07:35:26;;;;;;;22.52;14.02;;;9.30;99.90;;;;;;5027125;28;20042;-85
2023/10/27 07:37:52;;;;;;;22.25;14.88;;;9.30;99.90;;;;;;5027856;28;20139;-86
2023/10/27 07:40:19;;;;;;;22.38;14.13;;;9.30;99.90;;;;;;5027699;28;20056;-86
2023/10/27 07:42:44;;;;;;;21.67;14.20;;;9.30;99.90;;;;;;5028604;28;20037;-86
2023/10/27 07:45:10;;;;;;;23.33;14.10;;;9.30;99.90;;;;;;5029050;28;20179;-87
2023/10/27 07:47:36;;;;;;;20.02;13.20;;;9.30;99.90;;;;;;5029252;28;20038;-86
2023/10/27 07:50:02;;;;;;;19.70;13.38;;;9.30;99.90;;;;;;5027816;28;20107;-87
2023/10/27 07:52:27;;;;;;;27.17;14.18;;;9.30;99.90;;;;;;5027749;28;20579;-87
2023/10/27 07:54:54;;;;;;;20.50;14.27;;;9.30;99.90;;;;;;5028488;28;20057;-85
2023/10/27 07:57:21;;;;;;;19.95;13.00;;;9.30;99.90;;;;;;5028430;28;20053;-86
2023/10/27 07:59:47;;;;;;;23.08;13.30;;;9.40;99.90;;;;;;5028917;28;20045;-87
2023/10/27 08:02:13;;;;;;;21.20;13.20;;;9.40;99.90;;;;;;5011196;28;20487;-86
2023/10/27 08:04:38;;;;;;;18.90;13.68;;;9.40;99.90;;;;;;5027234;28;20052;-86
2023/10/27 08:07:04;;;;;;;21.83;12.77;;;9.40;99.90;;;;;;5026702;28;20396;-87
2023/10/27 08:09:31;;;;;;;20.05;13.32;;;9.40;99.90;;;;;;5027040;28;20048;-87
2023/10/27 08:11:57;;;;;;;18.45;12.70;;;9.40;99.90;;;;;;5026452;28;20045;-87
2023/10/27 08:14:23;;;;;;;20.00;12.20;;;9.50;99.90;;;;;;5027248;28;20053;-86
2023/10/27 08:16:49;;;;;;;18.20;12.20;;;9.60;99.90;;;;;;5010952;28;20136;-87
2023/10/27 08:19:15;;;;;;;18.90;12.25;;;9.50;99.90;;;;;;5010202;28;20042;-86
2023/10/27 08:21:40;;;;;;;21.17;12.88;;;9.50;99.90;;;;;;5039176;28;20420;-85
2023/10/27 08:24:07;;;;;;;20.90;12.80;;;9.60;99.90;;;;;;5047345;28;20045;-86
2023/10/27 08:26:32;;;;;;;20.60;12.68;;;9.60;99.90;;;;;;5046966;28;20072;-86
2023/10/27 08:28:58;;;;;;;22.10;13.70;;;9.60;99.90;;;;;;5030241;28;20443;-88
2023/10/27 08:31:24;;;;;;;21.45;12.98;;;9.60;99.90;;;;;;5028449;28;20540;-84
2023/10/27 08:33:50;;;;;;;21.20;13.68;;;9.70;99.90;;;;;;5028855;28;20045;-84
2023/10/27 08:36:19;;;;;;;19.92;13.00;;;9.70;99.90;;;;;;5012528;28;20090;-86
2023/10/27 08:38:44;;;;;;;19.55;12.68;;;9.70;99.90;;;;;;5029284;28;20081;-84
2023/10/27 08:41:10;;;;;;;20.83;13.05;;;9.70;99.90;;;;;;5028370;28;20077;-85
2023/10/27 08:43:39;;;;;;;20.35;13.45;;;9.70;99.90;;;;;;5029791;28;20060;-87
2023/10/27 08:46:07;;;;;;;20.02;12.95;;;10.50;99.90;;;;;;5028917;28;20388;-86
2023/10/27 08:48:33;;;;;;;19.08;12.40;;;9.80;99.90;;;;;;5027808;28;20120;-86
2023/10/27 08:51:04;;;;;;;21.83;13.77;;;9.80;99.90;;;;;;5029012;28;20132;-86
2023/10/27 08:53:30;;;;;;;20.58;13.00;;;9.80;99.90;;;;;;5029242;28;20041;-86
2023/10/27 08:55:58;;;;;;;21.15;13.20;;;10.40;99.90;;;;;;5013481;28;20044;-85
2023/10/27 08:58:23;;;;;;;20.35;12.70;;;9.90;99.90;;;;;;5027960;28;20072;-86
2023/10/27 09:00:49;;;;;;;18.17;12.25;;;9.80;99.90;;;;;;5029416;28;20103;-87
2023/10/27 09:03:18;;;;;;;19.67;13.00;;;9.90;99.90;;;;;;5013084;28;20466;-86
2023/10/27 09:05:44;;;;;;;18.42;12.73;;;9.90;99.90;;;;;;5028951;28;20410;-86
2023/10/27 09:08:10;;;;;;;18.67;12.32;;;10.00;99.90;;;;;;5030883;28;20049;-87
2023/10/27 09:10:37;;;;;;;17.80;11.80;;;9.90;99.90;;;;;;5027948;28;20071;-86
2023/10/27 09:13:04;;;;;;;22.48;13.77;;;10.00;99.90;;;;;;5013102;28;20273;-86
2023/10/27 09:15:46;;;;;;;18.25;12.02;;;9.90;99.90;;;;;;5029936;28;20045;-87
2023/10/27 09:18:12;;;;;;;17.35;12.10;;;9.90;99.90;;;;;;5014771;28;20045;-88
2023/10/27 09:20:52;;;;;;;20.13;12.30;;;10.00;99.90;;;;;;5032941;28;20049;-88
2023/10/27 09:23:19;;;;;;;19.67;12.70;;;10.00;99.90;;;;;;4998286;28;20053;-87
2023/10/27 09:25:46;;;;;;;21.77;12.52;;;10.00;99.90;;;;;;5022227;28;20048;-88
2023/10/27 09:28:12;;;;;;;17.77;11.82;;;10.00;99.90;;;;;;5033221;28;20053;-88
2023/10/27 09:30:43;;;;;;;19.23;12.63;;;10.00;99.90;;;;;;5032479;28;20045;-88
2023/10/27 09:33:20;;;;;;;19.60;11.93;;;10.00;99.90;;;;;;5015560;28;20041;-88
2023/10/27 09:35:49;;;;;;;18.33;12.50;;;10.00;99.90;;;;;;5032309;28;20510;-88
2023/10/27 09:38:16;;;;;;;18.83;12.32;;;10.00;99.90;;;;;;5034010;28;20048;-88
2023/10/27 09:40:43;;;;;;;20.40;12.90;;;10.00;99.90;;;;;;5022339;28;20100;-86
2023/10/27 09:43:17;;;;;;;19.67;12.95;;;10.00;99.90;;;;;;5035136;28;20045;-90
2023/10/27 09:45:55;;;;;;;20.15;12.75;;;10.00;99.90;;;;;;5033395;28;20068;-87
2023/10/27 09:48:30;;;;;;;21.00;12.63;;;10.10;99.90;;;;;;5014906;28;20033;-87
2023/10/27 09:51:10;;;;;;;19.15;12.35;;;10.00;99.90;;;;;;5016348;28;20132;-86
2023/10/27 09:53:38;;;;;;;19.80;12.70;;;10.10;99.90;;;;;;5032461;28;20123;-88
2023/10/27 09:56:05;;;;;;;19.23;12.60;;;10.10;99.90;;;;;;5032627;28;21040;-85
2023/10/27 09:58:33;;;;;;;19.23;12.38;;;10.10;99.90;;;;;;5033005;28;20064;-87
2023/10/27 10:01:04;;;;;;;19.42;12.63;;;10.10;99.90;;;;;;5032578;28;20045;-89
2023/10/27 10:03:30;;;;;;;19.83;13.05;;;10.10;99.90;;;;;;5018975;28;20076;-87
2023/10/27 10:06:17;;;;;;;19.45;12.52;;;10.10;99.90;;;;;;5012048;28;20045;-88
2023/10/27 10:09:09;;;;;;;21.52;13.18;;;10.60;99.90;;;;;;5030355;28;20495;-87
2023/10/27 10:11:55;;;;;;;19.57;11.83;;;10.10;99.90;;;;;;5033737;28;20052;-90
2023/10/27 10:14:39;;;;;;;19.08;12.23;;;10.10;99.90;;;;;;5035241;28;20510;-88
2023/10/27 10:17:08;;;;;;;18.90;13.25;;;10.10;99.90;;;;;;5014626;28;20495;-87
2023/10/27 10:19:50;;;;;;;21.73;13.50;;;10.20;99.90;;;;;;5015962;28;20044;-88
2023/10/27 10:22:39;;;;;;;21.05;12.32;;;10.20;99.90;;;;;;5017061;28;20094;-88
2023/10/27 10:25:23;;;;;;;18.20;12.10;;;10.80;99.90;;;;;;5019770;28;20041;-90
2023/10/27 10:28:11;;;;;;;21.50;12.85;;;10.20;99.90;;;;;;5038299;28;20045;-86
2023/10/27 10:30:38;;;;;;;20.42;12.70;;;10.20;99.90;;;;;;5031638;28;20064;-87
2023/10/27 10:33:16;;;;;;;18.98;12.63;;;10.20;99.90;;;;;;5014684;28;20049;-87
2023/10/27 10:35:43;;;;;;;19.13;13.13;;;10.80;99.90;;;;;;5031365;28;20144;-86
2023/10/27 10:38:24;;;;;;;21.40;13.25;;;10.50;99.90;;;;;;5028967;28;20045;-86
2023/10/27 10:40:51;;;;;;;19.80;13.10;;;10.50;99.90;;;;;;5031007;28;20049;-87
2023/10/27 10:43:24;;;;;;;22.05;13.38;;;10.30;99.90;;;;;;5024836;28;20502;-87
2023/10/27 10:45:53;;;;;;;17.95;12.77;;;11.00;99.90;;;;;;5004048;28;20072;-87
2023/10/27 10:48:27;;;;;;;20.15;13.02;;;10.30;99.90;;;;;;5032352;28;20142;-86
2023/10/27 10:50:56;;;;;;;23.08;14.63;;;10.40;99.90;;;;;;5028979;28;20056;-86
2023/10/27 10:53:25;;;;;;;20.85;13.90;;;10.40;99.90;;;;;;5030745;28;20506;-86
2023/10/27 10:55:57;;;;;;;21.45;14.25;;;10.30;99.90;;;;;;5032496;28;20044;-87
2023/10/27 10:58:27;;;;;;;20.95;14.30;;;10.40;99.90;;;;;;5031205;28;20170;-88
2023/10/27 11:00:55;;;;;;;21.35;13.85;;;10.40;99.90;;;;;;5031851;28;20099;-87
2023/10/27 11:03:23;;;;;;;21.33;14.05;;;11.20;99.90;;;;;;5032196;28;20071;-87
2023/10/27 11:05:58;;;;;;;20.30;12.90;;;10.50;99.90;;;;;;5014858;28;20388;-87
2023/10/27 11:08:25;;;;;;;20.45;14.35;;;10.40;99.90;;;;;;5034088;28;20041;-90
2023/10/27 11:11:08;;;;;;;20.55;13.38;;;10.50;99.90;;;;;;5031801;28;20048;-88
2023/10/27 11:13:58;;;;;;;20.23;13.63;;;10.50;99.90;;;;;;5030935;28;20064;-87
2023/10/27 11:16:25;;;;;;;21.05;13.88;;;10.60;99.90;;;;;;5030655;28;20044;-87
2023/10/27 11:18:59;;;;;;;21.02;14.55;;;10.50;99.90;;;;;;5030982;28;20079;-88
2023/10/27 11:21:27;;;;;;;21.55;13.73;;;10.60;99.90;;;;;;5031805;28;20061;-87
2023/10/27 11:23:53;;;;;;;22.23;13.93;;;10.60;99.90;;;;;;5031821;28;20341;-88
2023/10/27 11:26:26;;;;;;;23.05;14.40;;;10.60;99.90;;;;;;5031356;28;20486;-87
2023/10/27 11:28:55;;;;;;;20.10;14.02;;;10.60;99.90;;;;;;5030189;28;20506;-88
2023/10/27 11:31:31;;;;;;;20.20;14.25;;;10.60;99.90;;;;;;5031056;28;20087;-87
2023/10/27 11:34:00;;;;;;;20.27;14.15;;;10.60;99.90;;;;;;5030969;28;20045;-87
2023/10/27 11:36:46;;;;;;;21.38;14.32;;;10.60;99.90;;;;;;5030832;28;20091;-87
2023/10/27 11:39:17;;;;;;;20.45;14.05;;;10.60;99.90;;;;;;5027675;28;20071;-88
2023/10/27 11:42:03;;;;;;;20.88;14.20;;;10.60;99.90;;;;;;5026856;28;20045;-89
2023/10/27 11:44:40;;;;;;;21.25;13.80;;;10.60;99.90;;;;;;5028325;28;20495;-92
2023/10/27 11:47:06;;;;;;;20.13;14.05;;;10.60;99.90;;;;;;5030277;28;20045;-88
2023/10/27 11:49:32;;;;;;;22.25;14.10;;;10.70;99.90;;;;;;5030882;28;20455;-85
2023/10/27 11:51:58;;;;;;;22.83;13.82;;;10.70;99.90;;;;;;5047795;28;20063;-86
2023/10/27 11:54:25;;;;;;;19.98;13.52;;;10.80;99.90;;;;;;5031107;28;20751;-86
2023/10/27 11:56:52;;;;;;;19.40;14.13;;;10.70;99.90;;;;;;5013740;28;20045;-87
2023/10/27 11:59:20;;;;;;;21.95;14.57;;;10.70;99.90;;;;;;5012238;28;20048;-86
2023/10/27 12:01:48;;;;;;;20.00;13.93;;;10.70;99.90;;;;;;5004023;28;20092;-88
2023/10/27 12:04:14;;;;;;;21.73;12.95;;;10.70;99.90;;;;;;5031113;28;20122;-89
2023/10/27 12:06:41;;;;;;;21.52;13.48;;;10.70;99.90;;;;;;5031740;28;20044;-89
2023/10/27 12:09:08;;;;;;;19.75;13.23;;;10.70;99.90;;;;;;5017477;28;20087;-89
2023/10/27 12:11:34;;;;;;;20.80;13.50;;;10.70;99.90;;;;;;5034518;28;20094;-88
2023/10/27 12:14:01;;;;;;;19.70;13.32;;;10.70;99.90;;;;;;5017048;28;20056;-89
2023/10/27 12:16:29;;;;;;;22.17;14.63;;;10.70;99.90;;;;;;5033904;28;20045;-90
2023/10/27 12:18:55;;;;;;;21.17;14.48;;;10.70;99.90;;;;;;5033509;28;20055;-89
2023/10/27 12:21:26;;;;;;;19.77;13.98;;;10.80;99.90;;;;;;5032426;28;20506;-89
2023/10/27 12:23:53;;;;;;;20.65;13.07;;;10.80;99.90;;;;;;5033621;28;20052;-90
2023/10/27 12:26:23;;;;;;;19.33;13.50;;;10.80;99.90;;;;;;5017174;28;20132;-90
2023/10/27 12:28:50;;;;;;;19.67;13.63;;;10.80;99.90;;;;;;5033446;28;20135;-92
2023/10/27 12:31:16;;;;;;;21.38;14.50;;;11.30;99.90;;;;;;5032725;28;20045;-85
2023/10/27 12:33:44;;;;;;;21.08;13.80;;;10.80;99.90;;;;;;5032105;28;20457;-87
2023/10/27 12:36:12;;;;;;;18.85;13.18;;;10.30;99.90;;;;;;5029365;28;20041;-86